sensor_id;sensor_type;location;lat;lon;timestamp;P1;durP1;ratioP1;P2;durP2;ratioP2
80183;SDS011;69682;52.138;5.440;2024-02-28T00:00:51;25.08;;;10.85;;
80183;SDS011;69682;52.138;5.440;2024-02-28T00:03:19;27.20;;;11.90;;
80183;SDS011;69682;52.138;5.440;2024-02-28T00:05:46;26.30;;;12.80;;
80183;SDS011;69682;52.138;5.440;2024-02-28T00:08:12;27.95;;;12.27;;
80183;SDS011;69682;52.138;5.440;2024-02-28T00:10:39;29.20;;;13.23;;
80183;SDS011;69682;52.138;5.440;2024-02-28T00:13:05;26.10;;;11.52;;
80183;SDS011;69682;52.138;5.440;2024-02-28T00:15:32;25.60;;;11.73;;
80183;SDS011;69682;52.138;5.440;2024-02-28T00:17:59;27.70;;;11.57;;
80183;SDS011;69682;52.138;5.440;2024-02-28T00:20:25;25.80;;;11.10;;
80183;SDS011;69682;52.138;5.440;2024-02-28T00:22:53;22.25;;;11.52;;
80183;SDS011;69682;52.138;5.440;2024-02-28T00:25:20;24.23;;;10.82;;
80183;SDS011;69682;52.138;5.440;2024-02-28T00:27:46;28.60;;;11.48;;
80183;SDS011;69682;52.138;5.440;2024-02-28T00:30:13;24.20;;;10.73;;
80183;SDS011;69682;52.138;5.440;2024-02-28T00:32:40;26.52;;;10.50;;
80183;SDS011;69682;52.138;5.440;2024-02-28T00:35:06;22.83;;;10.63;;
80183;SDS011;69682;52.138;5.440;2024-02-28T00:37:33;26.30;;;10.55;;
80183;SDS011;69682;52.138;5.440;2024-02-28T00:40:00;24.08;;;11.00;;
80183;SDS011;69682;52.138;5.440;2024-02-28T00:42:27;24.77;;;10.73;;
80183;SDS011;69682;52.138;5.440;2024-02-28T00:44:54;25.60;;;12.43;;
80183;SDS011;69682;52.138;5.440;2024-02-28T00:47:20;24.42;;;9.60;;
80183;SDS011;69682;52.138;5.440;2024-02-28T00:49:47;26.35;;;11.63;;
80183;SDS011;69682;52.138;5.440;2024-02-28T00:52:13;30.55;;;11.98;;
80183;SDS011;69682;52.138;5.440;2024-02-28T00:54:40;28.13;;;11.68;;
80183;SDS011;69682;52.138;5.440;2024-02-28T00:57:06;29.10;;;10.95;;
80183;SDS011;69682;52.138;5.440;2024-02-28T00:59:33;27.83;;;13.40;;
80183;SDS011;69682;52.138;5.440;2024-02-28T01:01:59;27.45;;;11.95;;
80183;SDS011;69682;52.138;5.440;2024-02-28T01:04:26;26.67;;;12.88;;
80183;SDS011;69682;52.138;5.440;2024-02-28T01:06:53;25.10;;;10.20;;
80183;SDS011;69682;52.138;5.440;2024-02-28T01:09:20;25.42;;;10.88;;
80183;SDS011;69682;52.138;5.440;2024-02-28T01:11:48;29.88;;;11.90;;
80183;SDS011;69682;52.138;5.440;2024-02-28T01:14:14;29.52;;;12.27;;
80183;SDS011;69682;52.138;5.440;2024-02-28T01:16:41;24.52;;;11.73;;
80183;SDS011;69682;52.138;5.440;2024-02-28T01:19:07;25.75;;;11.93;;
80183;SDS011;69682;52.138;5.440;2024-02-28T01:21:33;33.15;;;13.20;;
80183;SDS011;69682;52.138;5.440;2024-02-28T01:24:00;23.92;;;11.75;;
80183;SDS011;69682;52.138;5.440;2024-02-28T01:26:27;26.67;;;11.43;;
80183;SDS011;69682;52.138;5.440;2024-02-28T01:28:53;24.88;;;11.63;;
80183;SDS011;69682;52.138;5.440;2024-02-28T01:31:20;28.65;;;14.18;;
80183;SDS011;69682;52.138;5.440;2024-02-28T01:33:46;24.00;;;11.52;;
80183;SDS011;69682;52.138;5.440;2024-02-28T01:36:14;25.58;;;11.00;;
80183;SDS011;69682;52.138;5.440;2024-02-28T01:38:40;23.80;;;9.75;;
80183;SDS011;69682;52.138;5.440;2024-02-28T01:41:07;24.90;;;10.82;;
80183;SDS011;69682;52.138;5.440;2024-02-28T01:43:34;27.92;;;10.30;;
80183;SDS011;69682;52.138;5.440;2024-02-28T01:46:01;21.88;;;9.25;;
80183;SDS011;69682;52.138;5.440;2024-02-28T01:48:33;19.08;;;9.85;;
80183;SDS011;69682;52.138;5.440;2024-02-28T01:51:00;36.20;;;11.73;;
80183;SDS011;69682;52.138;5.440;2024-02-28T01:53:27;23.48;;;12.35;;
80183;SDS011;69682;52.138;5.440;2024-02-28T01:55:53;35.42;;;11.35;;
80183;SDS011;69682;52.138;5.440;2024-02-28T01:58:21;34.17;;;9.77;;
80183;SDS011;69682;52.138;5.440;2024-02-28T02:00:47;34.08;;;10.50;;
80183;SDS011;69682;52.138;5.440;2024-02-28T02:03:15;40.90;;;10.40;;
80183;SDS011;69682;52.138;5.440;2024-02-28T02:05:42;27.60;;;10.23;;
80183;SDS011;69682;52.138;5.440;2024-02-28T02:08:09;20.20;;;10.95;;
80183;SDS011;69682;52.138;5.440;2024-02-28T02:10:36;12.85;;;5.65;;
80183;SDS011;69682;52.138;5.440;2024-02-28T02:13:05;39.40;;;10.80;;
80183;SDS011;69682;52.138;5.440;2024-02-28T02:15:32;27.70;;;8.02;;
80183;SDS011;69682;52.138;5.440;2024-02-28T02:17:59;35.22;;;8.90;;
80183;SDS011;69682;52.138;5.440;2024-02-28T02:20:26;23.25;;;7.85;;
80183;SDS011;69682;52.138;5.440;2024-02-28T02:22:56;23.45;;;8.55;;
80183;SDS011;69682;52.138;5.440;2024-02-28T02:25:22;19.15;;;7.10;;
80183;SDS011;69682;52.138;5.440;2024-02-28T02:27:49;26.63;;;8.38;;
80183;SDS011;69682;52.138;5.440;2024-02-28T02:30:15;23.55;;;8.00;;
80183;SDS011;69682;52.138;5.440;2024-02-28T02:32:42;28.50;;;8.13;;
80183;SDS011;69682;52.138;5.440;2024-02-28T02:35:09;27.80;;;7.13;;
80183;SDS011;69682;52.138;5.440;2024-02-28T02:37:36;15.13;;;8.07;;
80183;SDS011;69682;52.138;5.440;2024-02-28T02:40:02;13.10;;;6.60;;
80183;SDS011;69682;52.138;5.440;2024-02-28T02:42:29;19.85;;;8.40;;
80183;SDS011;69682;52.138;5.440;2024-02-28T02:44:56;32.45;;;8.50;;
80183;SDS011;69682;52.138;5.440;2024-02-28T02:47:22;16.02;;;7.80;;
80183;SDS011;69682;52.138;5.440;2024-02-28T02:49:49;18.63;;;8.32;;
80183;SDS011;69682;52.138;5.440;2024-02-28T02:52:15;17.67;;;7.97;;
80183;SDS011;69682;52.138;5.440;2024-02-28T02:54:42;19.42;;;9.13;;
80183;SDS011;69682;52.138;5.440;2024-02-28T02:57:08;19.05;;;8.50;;
80183;SDS011;69682;52.138;5.440;2024-02-28T02:59:35;16.10;;;8.10;;
80183;SDS011;69682;52.138;5.440;2024-02-28T03:02:02;18.08;;;6.07;;
80183;SDS011;69682;52.138;5.440;2024-02-28T03:04:30;16.70;;;8.00;;
80183;SDS011;69682;52.138;5.440;2024-02-28T03:06:56;19.77;;;8.20;;
80183;SDS011;69682;52.138;5.440;2024-02-28T03:09:23;16.67;;;7.18;;
80183;SDS011;69682;52.138;5.440;2024-02-28T03:11:51;15.35;;;8.63;;
80183;SDS011;69682;52.138;5.440;2024-02-28T03:14:17;13.82;;;7.00;;
80183;SDS011;69682;52.138;5.440;2024-02-28T03:16:45;20.70;;;7.85;;
80183;SDS011;69682;52.138;5.440;2024-02-28T03:19:14;18.30;;;8.32;;
80183;SDS011;69682;52.138;5.440;2024-02-28T03:21:47;15.93;;;7.32;;
80183;SDS011;69682;52.138;5.440;2024-02-28T03:24:13;20.98;;;9.27;;
80183;SDS011;69682;52.138;5.440;2024-02-28T03:26:40;17.45;;;9.45;;
80183;SDS011;69682;52.138;5.440;2024-02-28T03:29:06;13.48;;;6.97;;
80183;SDS011;69682;52.138;5.440;2024-02-28T03:31:33;15.90;;;7.25;;
80183;SDS011;69682;52.138;5.440;2024-02-28T03:33:59;18.92;;;8.77;;
80183;SDS011;69682;52.138;5.440;2024-02-28T03:36:27;17.40;;;10.32;;
80183;SDS011;69682;52.138;5.440;2024-02-28T03:38:55;15.00;;;8.50;;
80183;SDS011;69682;52.138;5.440;2024-02-28T03:41:21;15.65;;;7.97;;
80183;SDS011;69682;52.138;5.440;2024-02-28T03:43:48;15.10;;;8.05;;
80183;SDS011;69682;52.138;5.440;2024-02-28T03:46:14;15.10;;;8.02;;
80183;SDS011;69682;52.138;5.440;2024-02-28T03:48:41;19.95;;;8.10;;
80183;SDS011;69682;52.138;5.440;2024-02-28T03:51:08;15.05;;;7.30;;
80183;SDS011;69682;52.138;5.440;2024-02-28T03:53:42;18.27;;;8.07;;
80183;SDS011;69682;52.138;5.440;2024-02-28T03:56:09;10.70;;;5.13;;
80183;SDS011;69682;52.138;5.440;2024-02-28T03:58:35;14.23;;;6.85;;
80183;SDS011;69682;52.138;5.440;2024-02-28T04:01:02;15.45;;;7.50;;
80183;SDS011;69682;52.138;5.440;2024-02-28T04:03:29;13.82;;;7.53;;
80183;SDS011;69682;52.138;5.440;2024-02-28T04:05:55;13.57;;;7.53;;
80183;SDS011;69682;52.138;5.440;2024-02-28T04:08:22;14.35;;;6.97;;
80183;SDS011;69682;52.138;5.440;2024-02-28T04:10:48;12.38;;;6.80;;
80183;SDS011;69682;52.138;5.440;2024-02-28T04:13:17;10.05;;;6.10;;
80183;SDS011;69682;52.138;5.440;2024-02-28T04:15:43;14.77;;;7.00;;
80183;SDS011;69682;52.138;5.440;2024-02-28T04:20:38;13.75;;;7.38;;
80183;SDS011;69682;52.138;5.440;2024-02-28T04:23:05;12.63;;;6.32;;
80183;SDS011;69682;52.138;5.440;2024-02-28T04:25:31;15.45;;;7.43;;
80183;SDS011;69682;52.138;5.440;2024-02-28T04:27:58;15.02;;;7.68;;
80183;SDS011;69682;52.138;5.440;2024-02-28T04:30:25;14.93;;;7.53;;
80183;SDS011;69682;52.138;5.440;2024-02-28T04:32:51;15.93;;;7.53;;
80183;SDS011;69682;52.138;5.440;2024-02-28T04:35:18;15.50;;;7.15;;
80183;SDS011;69682;52.138;5.440;2024-02-28T04:37:45;12.07;;;6.97;;
80183;SDS011;69682;52.138;5.440;2024-02-28T04:40:12;15.88;;;6.85;;
80183;SDS011;69682;52.138;5.440;2024-02-28T04:42:39;16.08;;;7.18;;
80183;SDS011;69682;52.138;5.440;2024-02-28T04:45:06;13.32;;;6.85;;
80183;SDS011;69682;52.138;5.440;2024-02-28T04:47:33;15.23;;;8.15;;
80183;SDS011;69682;52.138;5.440;2024-02-28T04:50:09;14.95;;;7.35;;
80183;SDS011;69682;52.138;5.440;2024-02-28T04:52:36;14.60;;;7.32;;
80183;SDS011;69682;52.138;5.440;2024-02-28T04:55:03;16.92;;;8.45;;
80183;SDS011;69682;52.138;5.440;2024-02-28T04:57:30;13.38;;;7.75;;
80183;SDS011;69682;52.138;5.440;2024-02-28T04:59:56;15.98;;;7.38;;
80183;SDS011;69682;52.138;5.440;2024-02-28T05:02:23;15.35;;;8.65;;
80183;SDS011;69682;52.138;5.440;2024-02-28T05:04:51;16.60;;;8.07;;
80183;SDS011;69682;52.138;5.440;2024-02-28T05:07:18;17.15;;;7.57;;
80183;SDS011;69682;52.138;5.440;2024-02-28T05:09:45;15.52;;;7.95;;
80183;SDS011;69682;52.138;5.440;2024-02-28T05:12:12;12.60;;;8.85;;
80183;SDS011;69682;52.138;5.440;2024-02-28T05:14:38;14.02;;;8.30;;
80183;SDS011;69682;52.138;5.440;2024-02-28T05:17:05;15.30;;;7.88;;
80183;SDS011;69682;52.138;5.440;2024-02-28T05:19:32;13.55;;;7.75;;
80183;SDS011;69682;52.138;5.440;2024-02-28T05:21:58;14.93;;;7.43;;
80183;SDS011;69682;52.138;5.440;2024-02-28T05:24:27;15.00;;;7.28;;
80183;SDS011;69682;52.138;5.440;2024-02-28T05:26:54;14.27;;;10.10;;
80183;SDS011;69682;52.138;5.440;2024-02-28T05:29:20;15.48;;;7.72;;
80183;SDS011;69682;52.138;5.440;2024-02-28T05:31:47;15.48;;;8.15;;
80183;SDS011;69682;52.138;5.440;2024-02-28T05:34:13;15.93;;;8.20;;
80183;SDS011;69682;52.138;5.440;2024-02-28T05:36:47;15.00;;;8.38;;
80183;SDS011;69682;52.138;5.440;2024-02-28T05:39:15;16.98;;;8.32;;
80183;SDS011;69682;52.138;5.440;2024-02-28T05:41:41;13.90;;;8.70;;
80183;SDS011;69682;52.138;5.440;2024-02-28T05:44:08;16.35;;;8.52;;
80183;SDS011;69682;52.138;5.440;2024-02-28T05:46:35;14.27;;;6.82;;
80183;SDS011;69682;52.138;5.440;2024-02-28T05:49:03;13.68;;;7.85;;
80183;SDS011;69682;52.138;5.440;2024-02-28T05:51:30;15.68;;;8.50;;
80183;SDS011;69682;52.138;5.440;2024-02-28T05:53:57;15.50;;;7.78;;
80183;SDS011;69682;52.138;5.440;2024-02-28T05:56:24;15.65;;;8.32;;
80183;SDS011;69682;52.138;5.440;2024-02-28T05:58:50;16.83;;;9.18;;
80183;SDS011;69682;52.138;5.440;2024-02-28T06:01:24;12.68;;;7.53;;
80183;SDS011;69682;52.138;5.440;2024-02-28T06:03:51;12.48;;;7.55;;
80183;SDS011;69682;52.138;5.440;2024-02-28T06:06:17;16.02;;;7.55;;
80183;SDS011;69682;52.138;5.440;2024-02-28T06:08:44;17.25;;;9.05;;
80183;SDS011;69682;52.138;5.440;2024-02-28T06:11:11;15.70;;;8.40;;
80183;SDS011;69682;52.138;5.440;2024-02-28T06:13:40;12.10;;;8.00;;
80183;SDS011;69682;52.138;5.440;2024-02-28T06:16:07;14.85;;;8.65;;
80183;SDS011;69682;52.138;5.440;2024-02-28T06:18:34;11.30;;;7.03;;
80183;SDS011;69682;52.138;5.440;2024-02-28T06:21:00;16.15;;;9.20;;
80183;SDS011;69682;52.138;5.440;2024-02-28T06:23:28;13.60;;;8.18;;
80183;SDS011;69682;52.138;5.440;2024-02-28T06:25:56;11.63;;;7.10;;
80183;SDS011;69682;52.138;5.440;2024-02-28T06:28:23;14.68;;;8.15;;
80183;SDS011;69682;52.138;5.440;2024-02-28T06:30:50;14.48;;;7.95;;
80183;SDS011;69682;52.138;5.440;2024-02-28T06:33:17;15.07;;;8.55;;
80183;SDS011;69682;52.138;5.440;2024-02-28T06:35:45;13.60;;;9.15;;
80183;SDS011;69682;52.138;5.440;2024-02-28T06:38:11;16.15;;;8.98;;
80183;SDS011;69682;52.138;5.440;2024-02-28T06:40:38;12.00;;;8.40;;
80183;SDS011;69682;52.138;5.440;2024-02-28T06:43:04;15.95;;;10.13;;
80183;SDS011;69682;52.138;5.440;2024-02-28T06:45:31;18.95;;;8.77;;
80183;SDS011;69682;52.138;5.440;2024-02-28T06:47:58;14.07;;;9.65;;
80183;SDS011;69682;52.138;5.440;2024-02-28T06:50:25;16.13;;;9.07;;
80183;SDS011;69682;52.138;5.440;2024-02-28T06:52:51;15.63;;;8.07;;
80183;SDS011;69682;52.138;5.440;2024-02-28T06:55:20;16.67;;;9.68;;
80183;SDS011;69682;52.138;5.440;2024-02-28T06:57:47;21.33;;;15.50;;
80183;SDS011;69682;52.138;5.440;2024-02-28T07:00:13;14.63;;;8.75;;
80183;SDS011;69682;52.138;5.440;2024-02-28T07:02:45;13.05;;;7.97;;
80183;SDS011;69682;52.138;5.440;2024-02-28T07:05:12;20.73;;;9.57;;
80183;SDS011;69682;52.138;5.440;2024-02-28T07:07:39;14.38;;;8.43;;
80183;SDS011;69682;52.138;5.440;2024-02-28T07:10:14;15.95;;;8.73;;
80183;SDS011;69682;52.138;5.440;2024-02-28T07:12:41;9.73;;;7.20;;
80183;SDS011;69682;52.138;5.440;2024-02-28T07:15:07;12.38;;;7.00;;
80183;SDS011;69682;52.138;5.440;2024-02-28T07:17:34;10.68;;;6.85;;
80183;SDS011;69682;52.138;5.440;2024-02-28T07:20:00;14.63;;;8.25;;
80183;SDS011;69682;52.138;5.440;2024-02-28T07:22:27;7.53;;;5.40;;
80183;SDS011;69682;52.138;5.440;2024-02-28T07:24:53;13.18;;;6.43;;
80183;SDS011;69682;52.138;5.440;2024-02-28T07:27:22;15.95;;;8.50;;
80183;SDS011;69682;52.138;5.440;2024-02-28T07:29:50;16.35;;;8.50;;
80183;SDS011;69682;52.138;5.440;2024-02-28T07:32:16;15.35;;;9.15;;
80183;SDS011;69682;52.138;5.440;2024-02-28T07:34:43;11.30;;;5.53;;
80183;SDS011;69682;52.138;5.440;2024-02-28T07:37:09;13.18;;;7.32;;
80183;SDS011;69682;52.138;5.440;2024-02-28T07:39:36;11.15;;;6.95;;
80183;SDS011;69682;52.138;5.440;2024-02-28T07:42:02;12.55;;;8.15;;
80183;SDS011;69682;52.138;5.440;2024-02-28T07:44:29;15.60;;;8.27;;
80183;SDS011;69682;52.138;5.440;2024-02-28T07:46:57;14.40;;;7.80;;
80183;SDS011;69682;52.138;5.440;2024-02-28T07:49:24;15.45;;;7.57;;
80183;SDS011;69682;52.138;5.440;2024-02-28T07:51:54;6.07;;;4.88;;
80183;SDS011;69682;52.138;5.440;2024-02-28T07:54:21;6.07;;;3.90;;
80183;SDS011;69682;52.138;5.440;2024-02-28T07:56:48;9.30;;;5.57;;
80183;SDS011;69682;52.138;5.440;2024-02-28T07:59:14;16.33;;;8.55;;
80183;SDS011;69682;52.138;5.440;2024-02-28T08:01:41;9.95;;;5.60;;
80183;SDS011;69682;52.138;5.440;2024-02-28T08:04:08;19.25;;;7.80;;
80183;SDS011;69682;52.138;5.440;2024-02-28T08:06:35;12.15;;;5.47;;
80183;SDS011;69682;52.138;5.440;2024-02-28T08:09:09;13.40;;;6.30;;
80183;SDS011;69682;52.138;5.440;2024-02-28T08:11:39;10.82;;;6.20;;
80183;SDS011;69682;52.138;5.440;2024-02-28T08:14:05;13.02;;;8.75;;
80183;SDS011;69682;52.138;5.440;2024-02-28T08:16:32;14.25;;;8.32;;
80183;SDS011;69682;52.138;5.440;2024-02-28T08:18:59;14.73;;;7.22;;
80183;SDS011;69682;52.138;5.440;2024-02-28T08:21:25;15.00;;;8.18;;
80183;SDS011;69682;52.138;5.440;2024-02-28T08:23:53;8.00;;;4.80;;
80183;SDS011;69682;52.138;5.440;2024-02-28T08:26:20;11.57;;;8.02;;
80183;SDS011;69682;52.138;5.440;2024-02-28T08:28:47;9.40;;;6.25;;
80183;SDS011;69682;52.138;5.440;2024-02-28T08:31:13;9.10;;;5.55;;
80183;SDS011;69682;52.138;5.440;2024-02-28T08:33:40;6.07;;;3.97;;
80183;SDS011;69682;52.138;5.440;2024-02-28T08:36:08;7.35;;;4.00;;
80183;SDS011;69682;52.138;5.440;2024-02-28T08:38:34;17.60;;;9.98;;
80183;SDS011;69682;52.138;5.440;2024-02-28T08:41:03;14.70;;;9.45;;
80183;SDS011;69682;52.138;5.440;2024-02-28T08:43:30;10.00;;;6.60;;
80183;SDS011;69682;52.138;5.440;2024-02-28T08:45:57;10.98;;;7.75;;
80183;SDS011;69682;52.138;5.440;2024-02-28T08:48:23;8.95;;;6.53;;
80183;SDS011;69682;52.138;5.440;2024-02-28T08:50:50;12.32;;;8.73;;
80183;SDS011;69682;52.138;5.440;2024-02-28T08:53:16;14.73;;;8.27;;
80183;SDS011;69682;52.138;5.440;2024-02-28T08:55:43;15.35;;;10.43;;
80183;SDS011;69682;52.138;5.440;2024-02-28T08:58:09;12.52;;;6.70;;
80183;SDS011;69682;52.138;5.440;2024-02-28T09:00:36;17.08;;;10.18;;
80183;SDS011;69682;52.138;5.440;2024-02-28T09:03:04;10.00;;;6.05;;
80183;SDS011;69682;52.138;5.440;2024-02-28T09:05:31;15.95;;;10.70;;
80183;SDS011;69682;52.138;5.440;2024-02-28T09:07:57;17.70;;;8.55;;
80183;SDS011;69682;52.138;5.440;2024-02-28T09:10:24;18.60;;;10.75;;
80183;SDS011;69682;52.138;5.440;2024-02-28T09:12:51;12.38;;;8.32;;
80183;SDS011;69682;52.138;5.440;2024-02-28T09:15:19;11.98;;;7.13;;
80183;SDS011;69682;52.138;5.440;2024-02-28T09:17:46;21.35;;;10.45;;
80183;SDS011;69682;52.138;5.440;2024-02-28T09:20:12;14.68;;;10.45;;
80183;SDS011;69682;52.138;5.440;2024-02-28T09:22:39;20.38;;;10.77;;
80183;SDS011;69682;52.138;5.440;2024-02-28T09:25:06;14.15;;;9.65;;
80183;SDS011;69682;52.138;5.440;2024-02-28T09:27:35;16.02;;;10.00;;
80183;SDS011;69682;52.138;5.440;2024-02-28T09:30:03;18.30;;;10.63;;
80183;SDS011;69682;52.138;5.440;2024-02-28T09:32:33;25.50;;;10.70;;
80183;SDS011;69682;52.138;5.440;2024-02-28T09:35:05;17.13;;;10.98;;
80183;SDS011;69682;52.138;5.440;2024-02-28T09:37:32;17.98;;;11.93;;
80183;SDS011;69682;52.138;5.440;2024-02-28T09:39:59;19.33;;;10.68;;
80183;SDS011;69682;52.138;5.440;2024-02-28T09:42:27;9.27;;;6.28;;
80183;SDS011;69682;52.138;5.440;2024-02-28T09:44:54;8.10;;;4.75;;
80183;SDS011;69682;52.138;5.440;2024-02-28T09:47:22;17.60;;;9.27;;
80183;SDS011;69682;52.138;5.440;2024-02-28T09:49:49;21.83;;;11.88;;
80183;SDS011;69682;52.138;5.440;2024-02-28T09:52:25;20.35;;;11.75;;
80183;SDS011;69682;52.138;5.440;2024-02-28T09:54:51;22.58;;;13.35;;
80183;SDS011;69682;52.138;5.440;2024-02-28T09:57:18;11.77;;;6.57;;
80183;SDS011;69682;52.138;5.440;2024-02-28T09:59:46;23.58;;;12.95;;
80183;SDS011;69682;52.138;5.440;2024-02-28T10:02:20;16.30;;;8.98;;
80183;SDS011;69682;52.138;5.440;2024-02-28T10:04:49;11.60;;;7.97;;
80183;SDS011;69682;52.138;5.440;2024-02-28T10:07:16;25.17;;;12.93;;
80183;SDS011;69682;52.138;5.440;2024-02-28T10:09:43;18.55;;;11.50;;
80183;SDS011;69682;52.138;5.440;2024-02-28T10:12:10;19.27;;;12.30;;
80183;SDS011;69682;52.138;5.440;2024-02-28T10:14:36;21.63;;;13.02;;
80183;SDS011;69682;52.138;5.440;2024-02-28T10:17:04;21.35;;;13.27;;
80183;SDS011;69682;52.138;5.440;2024-02-28T10:19:32;19.60;;;11.25;;
80183;SDS011;69682;52.138;5.440;2024-02-28T10:21:58;20.00;;;10.82;;
80183;SDS011;69682;52.138;5.440;2024-02-28T10:24:25;23.48;;;12.20;;
80183;SDS011;69682;52.138;5.440;2024-02-28T10:26:52;18.85;;;11.27;;
80183;SDS011;69682;52.138;5.440;2024-02-28T10:29:22;23.75;;;13.32;;
80183;SDS011;69682;52.138;5.440;2024-02-28T10:31:50;19.05;;;11.07;;
80183;SDS011;69682;52.138;5.440;2024-02-28T11:43:58;26.40;;;14.95;;
80183;SDS011;69682;52.138;5.440;2024-02-28T11:46:25;21.98;;;12.35;;
80183;SDS011;69682;52.138;5.440;2024-02-28T11:48:52;21.35;;;12.43;;
80183;SDS011;69682;52.138;5.440;2024-02-28T11:51:19;16.02;;;11.43;;
80183;SDS011;69682;52.138;5.440;2024-02-28T11:53:45;25.63;;;13.55;;
80183;SDS011;69682;52.138;5.440;2024-02-28T11:56:12;18.23;;;11.13;;
80183;SDS011;69682;52.138;5.440;2024-02-28T11:58:50;22.88;;;13.40;;
80183;SDS011;69682;52.138;5.440;2024-02-28T12:01:18;17.42;;;11.23;;
80183;SDS011;69682;52.138;5.440;2024-02-28T12:03:45;13.20;;;8.88;;
80183;SDS011;69682;52.138;5.440;2024-02-28T12:06:12;21.27;;;11.85;;
80183;SDS011;69682;52.138;5.440;2024-02-28T12:08:40;17.92;;;9.63;;
80183;SDS011;69682;52.138;5.440;2024-02-28T12:11:07;14.75;;;9.15;;
80183;SDS011;69682;52.138;5.440;2024-02-28T12:13:34;22.20;;;12.75;;
80183;SDS011;69682;52.138;5.440;2024-02-28T12:16:01;16.77;;;10.90;;
80183;SDS011;69682;52.138;5.440;2024-02-28T12:18:28;16.25;;;8.55;;
80183;SDS011;69682;52.138;5.440;2024-02-28T12:20:55;17.38;;;9.10;;
80183;SDS011;69682;52.138;5.440;2024-02-28T12:23:23;27.15;;;12.95;;
80183;SDS011;69682;52.138;5.440;2024-02-28T12:25:50;20.50;;;10.70;;
80183;SDS011;69682;52.138;5.440;2024-02-28T12:28:16;19.98;;;11.23;;
80183;SDS011;69682;52.138;5.440;2024-02-28T12:30:47;22.95;;;11.27;;
80183;SDS011;69682;52.138;5.440;2024-02-28T12:33:14;22.45;;;10.45;;
80183;SDS011;69682;52.138;5.440;2024-02-28T12:35:40;19.80;;;10.73;;
80183;SDS011;69682;52.138;5.440;2024-02-28T12:38:08;23.75;;;11.93;;
80183;SDS011;69682;52.138;5.440;2024-02-28T12:40:35;16.90;;;9.90;;
80183;SDS011;69682;52.138;5.440;2024-02-28T12:43:02;14.02;;;7.97;;
80183;SDS011;69682;52.138;5.440;2024-02-28T12:45:29;19.85;;;9.18;;
80183;SDS011;69682;52.138;5.440;2024-02-28T12:47:57;11.45;;;7.57;;
80183;SDS011;69682;52.138;5.440;2024-02-28T12:50:24;23.05;;;11.43;;
80183;SDS011;69682;52.138;5.440;2024-02-28T12:52:51;20.50;;;11.32;;
80183;SDS011;69682;52.138;5.440;2024-02-28T12:55:20;18.83;;;8.68;;
80183;SDS011;69682;52.138;5.440;2024-02-28T12:57:49;20.83;;;13.77;;
80183;SDS011;69682;52.138;5.440;2024-02-28T13:00:16;20.42;;;9.20;;
80183;SDS011;69682;52.138;5.440;2024-02-28T13:02:44;17.77;;;8.63;;
80183;SDS011;69682;52.138;5.440;2024-02-28T13:05:11;22.40;;;10.38;;
80183;SDS011;69682;52.138;5.440;2024-02-28T13:07:41;22.02;;;12.20;;
80183;SDS011;69682;52.138;5.440;2024-02-28T13:10:07;19.42;;;11.35;;
80183;SDS011;69682;52.138;5.440;2024-02-28T13:12:39;19.63;;;11.05;;
80183;SDS011;69682;52.138;5.440;2024-02-28T13:15:06;19.13;;;10.30;;
80183;SDS011;69682;52.138;5.440;2024-02-28T13:17:34;18.15;;;8.80;;
80183;SDS011;69682;52.138;5.440;2024-02-28T13:20:01;18.00;;;10.77;;
80183;SDS011;69682;52.138;5.440;2024-02-28T13:22:29;19.02;;;10.82;;
80183;SDS011;69682;52.138;5.440;2024-02-28T13:24:56;13.50;;;8.65;;
80183;SDS011;69682;52.138;5.440;2024-02-28T13:27:22;17.55;;;9.95;;
80183;SDS011;69682;52.138;5.440;2024-02-28T13:29:49;18.25;;;10.10;;
80183;SDS011;69682;52.138;5.440;2024-02-28T13:32:15;15.88;;;8.40;;
80183;SDS011;69682;52.138;5.440;2024-02-28T13:34:42;19.67;;;10.88;;
80183;SDS011;69682;52.138;5.440;2024-02-28T13:37:13;14.73;;;8.80;;
80183;SDS011;69682;52.138;5.440;2024-02-28T13:39:40;20.70;;;11.70;;
80183;SDS011;69682;52.138;5.440;2024-02-28T13:42:06;19.88;;;9.50;;
80183;SDS011;69682;52.138;5.440;2024-02-28T13:44:35;17.55;;;10.25;;
80183;SDS011;69682;52.138;5.440;2024-02-28T13:47:07;20.38;;;12.40;;
80183;SDS011;69682;52.138;5.440;2024-02-28T13:49:33;21.50;;;12.27;;
80183;SDS011;69682;52.138;5.440;2024-02-28T13:52:00;22.38;;;11.60;;
80183;SDS011;69682;52.138;5.440;2024-02-28T13:54:27;16.23;;;8.93;;
80183;SDS011;69682;52.138;5.440;2024-02-28T13:56:54;23.98;;;11.13;;
80183;SDS011;69682;52.138;5.440;2024-02-28T13:59:20;7.80;;;5.38;;
80183;SDS011;69682;52.138;5.440;2024-02-28T14:01:47;18.10;;;9.55;;
80183;SDS011;69682;52.138;5.440;2024-02-28T14:04:14;8.60;;;5.03;;
80183;SDS011;69682;52.138;5.440;2024-02-28T14:06:41;20.88;;;10.50;;
80183;SDS011;69682;52.138;5.440;2024-02-28T14:09:08;14.40;;;7.28;;
80183;SDS011;69682;52.138;5.440;2024-02-28T14:11:35;18.00;;;9.45;;
80183;SDS011;69682;52.138;5.440;2024-02-28T14:14:01;18.20;;;10.63;;
80183;SDS011;69682;52.138;5.440;2024-02-28T14:16:29;22.73;;;10.63;;
80183;SDS011;69682;52.138;5.440;2024-02-28T14:18:58;13.13;;;8.57;;
80183;SDS011;69682;52.138;5.440;2024-02-28T14:21:25;19.80;;;10.73;;
80183;SDS011;69682;52.138;5.440;2024-02-28T14:23:52;17.38;;;9.98;;
80183;SDS011;69682;52.138;5.440;2024-02-28T14:26:18;23.25;;;12.00;;
80183;SDS011;69682;52.138;5.440;2024-02-28T14:28:45;15.38;;;8.68;;
80183;SDS011;69682;52.138;5.440;2024-02-28T14:31:12;18.33;;;8.98;;
80183;SDS011;69682;52.138;5.440;2024-02-28T14:33:38;11.43;;;5.55;;
80183;SDS011;69682;52.138;5.440;2024-02-28T14:36:05;18.10;;;9.95;;
80183;SDS011;69682;52.138;5.440;2024-02-28T14:38:34;20.52;;;10.50;;
80183;SDS011;69682;52.138;5.440;2024-02-28T14:41:01;16.42;;;9.57;;
80183;SDS011;69682;52.138;5.440;2024-02-28T14:43:29;18.35;;;8.90;;
80183;SDS011;69682;52.138;5.440;2024-02-28T14:45:56;9.50;;;5.60;;
80183;SDS011;69682;52.138;5.440;2024-02-28T14:48:23;14.32;;;7.82;;
80183;SDS011;69682;52.138;5.440;2024-02-28T14:50:49;16.08;;;9.63;;
80183;SDS011;69682;52.138;5.440;2024-02-28T14:53:16;18.73;;;10.52;;
80183;SDS011;69682;52.138;5.440;2024-02-28T14:55:45;16.70;;;8.30;;
80183;SDS011;69682;52.138;5.440;2024-02-28T14:58:13;12.98;;;7.70;;
80183;SDS011;69682;52.138;5.440;2024-02-28T15:00:40;16.35;;;7.97;;
80183;SDS011;69682;52.138;5.440;2024-02-28T15:03:06;18.38;;;9.05;;
80183;SDS011;69682;52.138;5.440;2024-02-28T15:05:33;16.45;;;9.07;;
80183;SDS011;69682;52.138;5.440;2024-02-28T15:08:00;16.20;;;8.38;;
80183;SDS011;69682;52.138;5.440;2024-02-28T15:10:28;15.55;;;7.97;;
80183;SDS011;69682;52.138;5.440;2024-02-28T15:12:54;16.48;;;7.68;;
80183;SDS011;69682;52.138;5.440;2024-02-28T15:15:22;18.33;;;10.30;;
80183;SDS011;69682;52.138;5.440;2024-02-28T15:17:49;18.42;;;9.70;;
80183;SDS011;69682;52.138;5.440;2024-02-28T15:20:15;14.10;;;7.55;;
80183;SDS011;69682;52.138;5.440;2024-02-28T15:22:42;15.20;;;8.50;;
80183;SDS011;69682;52.138;5.440;2024-02-28T15:25:09;15.45;;;8.50;;
80183;SDS011;69682;52.138;5.440;2024-02-28T15:27:37;15.65;;;7.68;;
80183;SDS011;69682;52.138;5.440;2024-02-28T15:30:04;12.50;;;7.55;;
80183;SDS011;69682;52.138;5.440;2024-02-28T15:32:31;8.95;;;5.50;;
80183;SDS011;69682;52.138;5.440;2024-02-28T15:34:58;15.30;;;8.07;;
80183;SDS011;69682;52.138;5.440;2024-02-28T15:37:34;12.77;;;7.15;;
80183;SDS011;69682;52.138;5.440;2024-02-28T15:40:01;15.65;;;8.05;;
80183;SDS011;69682;52.138;5.440;2024-02-28T15:42:33;14.57;;;8.13;;